Time;durP1;ratioP1;P1;durP2;ratioP2;P2;SDS_P1;SDS_P2;PMS_P1;PMS_P2;Temp;Humidity;BMP_temperature;BMP_pressure;BME280_temperature;BME280_humidity;BME280_pressure;Samples;Min_cycle;Max_cycle;Signal;HPM_P1;HPM_P2
2023/09/18 00:01:42;;;;;;;;;;;;;;;;;;4994073;28;90234;-72
2023/09/18 00:04:07;;;;;;;;;;;;;;;;;;4993023;28;90974;-75
2023/09/18 00:06:33;;;;;;;;;;;;;;;;;;4991861;28;92357;-77
2023/09/18 00:08:58;;;;;;;;;;;;;;;;;;4990950;28;89106;-71
2023/09/18 00:11:23;;;;;;;;;;;;;;;;;;4994581;28;89702;-75
2023/09/18 00:13:49;;;;;;;;;;;;;;;;;;4995717;28;90697;-63
2023/09/18 00:16:14;;;;;;;;;;;;;;;;;;4994242;28;89656;-75
2023/09/18 00:18:39;;;;;;;;;;;;;;;;;;4995327;28;89855;-67
2023/09/18 00:21:06;;;;;;;;;;;;;;;;;;4994256;28;90192;-66
2023/09/18 00:23:32;;;;;;;;;;;;;;;;;;4993497;28;89497;-68
2023/09/18 00:25:57;;;;;;;;;;;;;;;;;;4992654;28;90657;-66
2023/09/18 00:28:23;;;;;;;;;;;;;;;;;;4990617;28;90772;-70
2023/09/18 00:30:49;;;;;;;;;;;;;;;;;;4993620;28;90393;-72
2023/09/18 00:33:15;;;;;;;;;;;;;;;;;;4979068;28;92262;-68
2023/09/18 00:35:40;;;;;;;;;;;;;;;;;;4994412;28;89606;-67
2023/09/18 00:38:07;;;;;;;;;;;;;;;;;;4994141;28;89635;-67
2023/09/18 00:40:32;;;;;;;;;;;;;;;;;;4993545;28;89278;-68
2023/09/18 00:42:58;;;;;;;;;;;;;;;;;;4991829;28;89935;-75
2023/09/18 00:45:23;;;;;;;;;;;;;;;;;;4991474;28;91551;-65
2023/09/18 00:47:49;;;;;;;;;;;;;;;;;;4996530;28;89790;-69
2023/09/18 00:50:14;;;;;;;;;;;;;;;;;;4992509;28;89563;-65
2023/09/18 00:52:40;;;;;;;;;;;;;;;;;;4992963;28;89640;-76
2023/09/18 00:55:06;;;;;;;;;;;;;;;;;;4993402;28;89551;-74
2023/09/18 00:57:31;;;;;;;;;;;;;;;;;;4992563;28;90114;-75
2023/09/18 00:59:57;;;;;;;;;;;;;;;;;;4981091;28;92190;-67
2023/09/18 01:02:22;;;;;;;;;;;;;;;;;;4991407;28;90403;-66
2023/09/18 01:04:49;;;;;;;;;;;;;;;;;;4992183;28;90381;-69
2023/09/18 01:07:14;;;;;;;;;;;;;;;;;;4993691;28;90219;-65
2023/09/18 01:09:40;;;;;;;;;;;;;;;;;;4991791;28;89593;-63
2023/09/18 01:12:15;;;;;;;;;;;;;;;;;;4992497;28;89540;-64
2023/09/18 01:14:44;;;;;;;;;;;;;;;;;;4992556;28;90541;-67
2023/09/18 01:17:10;;;;;;;;;;;;;;;;;;4997451;28;90238;-67
2023/09/18 01:19:39;;;;;;;;;;;;;;;;;;4991612;28;89606;-65
2023/09/18 01:22:09;;;;;;;;;;;;;;;;;;4990354;28;89540;-74
2023/09/18 01:24:35;;;;;;;;;;;;;;;;;;4997964;28;90655;-71
2023/09/18 01:27:00;;;;;;;;;;;;;;;;;;4991466;28;89982;-71
2023/09/18 01:29:26;;;;;;;;;;;;;;;;;;4990186;28;89978;-73
2023/09/18 01:31:51;;;;;;;;;;;;;;;;;;4994107;28;91158;-71
2023/09/18 01:34:21;;;;;;;;;;;;;;;;;;4993875;28;90264;-71
2023/09/18 01:36:46;;;;;;;;;;;;;;;;;;4991018;28;89618;-66
2023/09/18 01:39:11;;;;;;;;;;;;;;;;;;4994315;28;89030;-71
2023/09/18 01:41:38;;;;;;;;;;;;;;;;;;4993021;28;89350;-74
2023/09/18 01:44:04;;;;;;;;;;;;;;;;;;4994276;28;89651;-76
2023/09/18 01:46:32;;;;;;;;;;;;;;;;;;4990576;28;89758;-70
2023/09/18 01:48:58;;;;;;;;;;;;;;;;;;4994831;28;89367;-77
2023/09/18 01:51:24;;;;;;;;;;;;;;;;;;4991472;28;90679;-74
2023/09/18 01:53:49;;;;;;;;;;;;;;;;;;4990027;28;89310;-71
2023/09/18 01:56:14;;;;;;;;;;;;;;;;;;4986388;28;89621;-73
2023/09/18 01:58:39;;;;;;;;;;;;;;;;;;4990050;28;89624;-66
2023/09/18 02:01:05;;;;;;;;;;;;;;;;;;4994948;28;90181;-75
2023/09/18 02:03:30;;;;;;;;;;;;;;;;;;4990282;28;89031;-70
2023/09/18 02:05:56;;;;;;;;;;;;;;;;;;4992977;28;89453;-78
2023/09/18 02:08:21;;;;;;;;;;;;;;;;;;4990723;28;90633;-74
2023/09/18 02:10:47;;;;;;;;;;;;;;;;;;4988313;28;92794;-75
2023/09/18 02:13:12;;;;;;;;;;;;;;;;;;4990752;28;91318;-64
2023/09/18 02:15:37;;;;;;;;;;;;;;;;;;4990537;28;90661;-69
2023/09/18 02:18:03;;;;;;;;;;;;;;;;;;4989745;28;90040;-74
2023/09/18 02:20:28;;;;;;;;;;;;;;;;;;4992977;28;91051;-76
2023/09/18 02:22:53;;;;;;;;;;;;;;;;;;4995220;28;90364;-75
2023/09/18 02:25:19;;;;;;;;;;;;;;;;;;4992574;28;89376;-65
2023/09/18 02:27:44;;;;;;;;;;;;;;;;;;4990938;28;89526;-71
2023/09/18 02:30:10;;;;;;;;;;;;;;;;;;4992370;28;89536;-71
2023/09/18 02:32:36;;;;;;;;;;;;;;;;;;4988850;28;89203;-69
2023/09/18 02:35:01;;;;;;;;;;;;;;;;;;4994164;28;91794;-73
2023/09/18 02:37:28;;;;;;;;;;;;;;;;;;4989480;28;91053;-73
2023/09/18 02:39:54;;;;;;;;;;;;;;;;;;4988915;28;90872;-70
2023/09/18 02:42:19;;;;;;;;;;;;;;;;;;4991934;28;89826;-65
2023/09/18 02:44:44;;;;;;;;;;;;;;;;;;4994663;28;89469;-68
2023/09/18 02:47:09;;;;;;;;;;;;;;;;;;4994846;28;89543;-75
2023/09/18 02:49:34;;;;;;;;;;;;;;;;;;4992463;28;89726;-71
2023/09/18 02:52:00;;;;;;;;;;;;;;;;;;4992743;28;89656;-71
2023/09/18 02:54:26;;;;;;;;;;;;;;;;;;4988742;28;90159;-66
2023/09/18 02:56:52;;;;;;;;;;;;;;;;;;4990738;28;89538;-72
2023/09/18 02:59:17;;;;;;;;;;;;;;;;;;4991994;28;90188;-66
2023/09/18 03:01:42;;;;;;;;;;;;;;;;;;4990086;28;89809;-67
2023/09/18 03:04:08;;;;;;;;;;;;;;;;;;4992673;28;90172;-73
2023/09/18 03:06:33;;;;;;;;;;;;;;;;;;4993609;28;89877;-73
2023/09/18 03:08:59;;;;;;;;;;;;;;;;;;4990344;28;90029;-66
2023/09/18 03:11:27;;;;;;;;;;;;;;;;;;4990307;28;89675;-73
2023/09/18 03:13:52;;;;;;;;;;;;;;;;;;4993677;28;89210;-71
2023/09/18 03:16:18;;;;;;;;;;;;;;;;;;4987823;28;91228;-75
2023/09/18 03:18:43;;;;;;;;;;;;;;;;;;4987954;28;92139;-73
2023/09/18 03:21:08;;;;;;;;;;;;;;;;;;4996669;28;89669;-68
2023/09/18 03:23:33;;;;;;;;;;;;;;;;;;4993755;28;89502;-75
2023/09/18 03:25:59;;;;;;;;;;;;;;;;;;4993109;28;90903;-74
2023/09/18 03:28:25;;;;;;;;;;;;;;;;;;4992880;28;89702;-71
2023/09/18 03:30:50;;;;;;;;;;;;;;;;;;4993435;28;89150;-70
2023/09/18 03:33:15;;;;;;;;;;;;;;;;;;4997061;28;89547;-64
2023/09/18 03:35:48;;;;;;;;;;;;;;;;;;4993717;28;89025;-65
2023/09/18 03:38:13;;;;;;;;;;;;;;;;;;4988382;28;91883;-65
2023/09/18 03:40:38;;;;;;;;;;;;;;;;;;4987013;28;89941;-64
2023/09/18 03:43:04;;;;;;;;;;;;;;;;;;4989549;28;89491;-71
2023/09/18 03:45:29;;;;;;;;;;;;;;;;;;4989167;28;90085;-65
2023/09/18 03:47:54;;;;;;;;;;;;;;;;;;4994856;28;89308;-66
2023/09/18 03:50:19;;;;;;;;;;;;;;;;;;4994613;28;91142;-63
2023/09/18 03:52:44;;;;;;;;;;;;;;;;;;4989363;28;89682;-70
2023/09/18 03:55:10;;;;;;;;;;;;;;;;;;4993647;28;90644;-70
2023/09/18 03:57:36;;;;;;;;;;;;;;;;;;4987492;28;89509;-71
2023/09/18 04:00:02;;;;;;;;;;;;;;;;;;4990186;28;90338;-75
2023/09/18 04:02:30;;;;;;;;;;;;;;;;;;4987733;28;89409;-75
2023/09/18 04:04:55;;;;;;;;;;;;;;;;;;4991004;28;90296;-73
2023/09/18 04:07:23;;;;;;;;;;;;;;;;;;4988898;28;89749;-75
2023/09/18 04:09:48;;;;;;;;;;;;;;;;;;4994098;28;89428;-75
2023/09/18 04:12:14;;;;;;;;;;;;;;;;;;4990240;28;89491;-70
2023/09/18 04:14:39;;;;;;;;;;;;;;;;;;4991901;28;91230;-69
2023/09/18 04:17:05;;;;;;;;;;;;;;;;;;4997646;28;89866;-70
2023/09/18 04:19:30;;;;;;;;;;;;;;;;;;4991105;28;89443;-68
2023/09/18 04:21:55;;;;;;;;;;;;;;;;;;4996054;28;90610;-71
2023/09/18 04:24:21;;;;;;;;;;;;;;;;;;4997222;28;90001;-74
2023/09/18 04:26:46;;;;;;;;;;;;;;;;;;4992823;28;89807;-66
2023/09/18 04:29:12;;;;;;;;;;;;;;;;;;4997050;28;90344;-71
2023/09/18 04:31:38;;;;;;;;;;;;;;;;;;5000583;28;89675;-68
2023/09/18 04:34:03;;;;;;;;;;;;;;;;;;4992122;28;89783;-68
2023/09/18 04:36:28;;;;;;;;;;;;;;;;;;4989228;28;89318;-71
2023/09/18 04:38:54;;;;;;;;;;;;;;;;;;4993368;28;89112;-64
2023/09/18 04:41:20;;;;;;;;;;;;;;;;;;4990709;28;90451;-71
2023/09/18 04:43:45;;;;;;;;;;;;;;;;;;4988859;28;91481;-74
2023/09/18 04:46:11;;;;;;;;;;;;;;;;;;4988558;28;89915;-77
2023/09/18 04:48:36;;;;;;;;;;;;;;;;;;4988633;28;90503;-71
2023/09/18 04:51:03;;;;;;;;;;;;;;;;;;4991520;28;90584;-73
2023/09/18 04:53:28;;;;;;;;;;;;;;;;;;4987961;28;90063;-72
2023/09/18 04:55:54;;;;;;;;;;;;;;;;;;4988272;28;89325;-74
2023/09/18 04:58:19;;;;;;;;;;;;;;;;;;4987833;28;89559;-73
2023/09/18 05:00:46;;;;;;;;;;;;;;;;;;4989913;28;89674;-75
2023/09/18 05:03:11;;;;;;;;;;;;;;;;;;4988208;28;89604;-77
2023/09/18 05:05:37;;;;;;;;;;;;;;;;;;4988226;28;89102;-76
2023/09/18 05:08:04;;;;;;;;;;;;;;;;;;4988193;28;91057;-72
2023/09/18 05:10:30;;;;;;;;;;;;;;;;;;4986865;28;89463;-73
2023/09/18 05:12:58;;;;;;;;;;;;;;;;;;4992695;28;89746;-75
2023/09/18 05:15:26;;;;;;;;;;;;;;;;;;4987587;28;89695;-77
2023/09/18 05:17:55;;;;;;;;;;;;;;;;;;4987848;28;89820;-77
2023/09/18 05:20:23;;;;;;;;;;;;;;;;;;4988516;28;90830;-74
2023/09/18 05:22:49;;;;;;;;;;;;;;;;;;4986471;28;90317;-71
2023/09/18 05:25:15;;;;;;;;;;;;;;;;;;4989095;28;89834;-74
2023/09/18 05:27:43;;;;;;;;;;;;;;;;;;4988601;28;90740;-74
2023/09/18 05:30:21;;;;;;;;;;;;;;;;;;4988169;28;89186;-75
2023/09/18 05:32:47;;;;;;;;;;;;;;;;;;4990524;28;89807;-73
2023/09/18 05:35:13;;;;;;;;;;;;;;;;;;4994139;28;90761;-72
2023/09/18 05:37:39;;;;;;;;;;;;;;;;;;4991645;28;89598;-69
2023/09/18 05:40:05;;;;;;;;;;;;;;;;;;4987461;28;90095;-65
2023/09/18 05:42:30;;;;;;;;;;;;;;;;;;4988119;28;90721;-68
2023/09/18 05:44:56;;;;;;;;;;;;;;;;;;4989660;28;90054;-69
2023/09/18 05:47:22;;;;;;;;;;;;;;;;;;4990764;28;90645;-69
2023/09/18 05:49:47;;;;;;;;;;;;;;;;;;4988682;28;90528;-69
2023/09/18 05:52:13;;;;;;;;;;;;;;;;;;4990325;28;89386;-71
2023/09/18 05:54:38;;;;;;;;;;;;;;;;;;4988061;28;89672;-64
2023/09/18 05:57:03;;;;;;;;;;;;;;;;;;4994160;28;90255;-66
2023/09/18 05:59:28;;;;;;;;;;;;;;;;;;4989506;28;89592;-68
2023/09/18 06:01:54;;;;;;;;;;;;;;;;;;4986828;28;89884;-70
2023/09/18 06:04:19;;;;;;;;;;;;;;;;;;4992230;28;89765;-64
2023/09/18 06:06:45;;;;;;;;;;;;;;;;;;4990955;28;89680;-65
2023/09/18 06:09:10;;;;;;;;;;;;;;;;;;4995594;28;90220;-65
2023/09/18 06:11:35;;;;;;;;;;;;;;;;;;4988896;28;89708;-67
2023/09/18 06:14:01;;;;;;;;;;;;;;;;;;4987172;28;90166;-64
2023/09/18 06:16:26;;;;;;;;;;;;;;;;;;4990937;28;89649;-69
2023/09/18 06:18:51;;;;;;;;;;;;;;;;;;4989244;28;89738;-70
2023/09/18 06:21:16;;;;;;;;;;;;;;;;;;4989057;28;90116;-66
2023/09/18 06:23:41;;;;;;;;;;;;;;;;;;4990619;28;89966;-68
2023/09/18 06:26:07;;;;;;;;;;;;;;;;;;4987137;28;89679;-71
2023/09/18 06:28:32;;;;;;;;;;;;;;;;;;4989349;28;90182;-66
2023/09/18 06:30:58;;;;;;;;;;;;;;;;;;4986682;28;90475;-70
2023/09/18 06:33:23;;;;;;;;;;;;;;;;;;4984711;28;93271;-72
2023/09/18 06:35:48;;;;;;;;;;;;;;;;;;4987280;28;90800;-69
2023/09/18 06:38:15;;;;;;;;;;;;;;;;;;4987883;28;90643;-69
2023/09/18 06:40:40;;;;;;;;;;;;;;;;;;4987750;28;91020;-70
2023/09/18 06:43:05;;;;;;;;;;;;;;;;;;4984263;28;89828;-67
2023/09/18 06:45:32;;;;;;;;;;;;;;;;;;4988952;28;90499;-71
2023/09/18 06:47:57;;;;;;;;;;;;;;;;;;4986987;28;89324;-71
2023/09/18 06:50:23;;;;;;;;;;;;;;;;;;4985553;28;89407;-72
2023/09/18 06:52:49;;;;;;;;;;;;;;;;;;4990924;28;89343;-69
2023/09/18 06:55:16;;;;;;;;;;;;;;;;;;4993551;28;90235;-71
2023/09/18 06:57:41;;;;;;;;;;;;;;;;;;4989992;28;89076;-73
2023/09/18 07:00:07;;;;;;;;;;;;;;;;;;4997780;28;89835;-68
2023/09/18 07:02:33;;;;;;;;;;;;;;;;;;4990066;28;89517;-67
2023/09/18 07:04:58;;;;;;;;;;;;;;;;;;4994252;28;90435;-67
2023/09/18 07:07:25;;;;;;;;;;;;;;;;;;4993453;28;90319;-68
2023/09/18 07:09:51;;;;;;;;;;;;;;;;;;4990475;28;89156;-70
2023/09/18 07:12:19;;;;;;;;;;;;;;;;;;4991669;28;91250;-69
2023/09/18 07:14:44;;;;;;;;;;;;;;;;;;4989802;28;90741;-71
2023/09/18 07:17:10;;;;;;;;;;;;;;;;;;4990809;28;89465;-71
2023/09/18 07:19:35;;;;;;;;;;;;;;;;;;4991367;28;90244;-66
2023/09/18 07:22:01;;;;;;;;;;;;;;;;;;4993006;28;89349;-69
2023/09/18 07:24:26;;;;;;;;;;;;;;;;;;4992199;28;90686;-70
2023/09/18 07:26:51;;;;;;;;;;;;;;;;;;4990206;28;89949;-71
2023/09/18 07:29:16;;;;;;;;;;;;;;;;;;4986637;28;89864;-71
2023/09/18 07:31:42;;;;;;;;;;;;;;;;;;4989365;28;89713;-71
2023/09/18 07:34:07;;;;;;;;;;;;;;;;;;4989887;28;90574;-71
2023/09/18 07:36:32;;;;;;;;;;;;;;;;;;4991282;28;89649;-70
2023/09/18 07:38:58;;;;;;;;;;;;;;;;;;4988822;28;89541;-65
2023/09/18 07:41:23;;;;;;;;;;;;;;;;;;4988996;28;91929;-67
2023/09/18 07:43:49;;;;;;;;;;;;;;;;;;4993143;28;89854;-67
2023/09/18 07:46:14;;;;;;;;;;;;;;;;;;4987834;28;92701;-69
2023/09/18 07:48:39;;;;;;;;;;;;;;;;;;4988609;28;90137;-70
2023/09/18 07:51:05;;;;;;;;;;;;;;;;;;4990231;28;89645;-67
2023/09/18 07:53:31;;;;;;;;;;;;;;;;;;4991308;28;89602;-72
2023/09/18 07:55:58;;;;;;;;;;;;;;;;;;4991622;28;89096;-69
2023/09/18 07:58:27;;;;;;;;;;;;;;;;;;4989032;28;90820;-69
2023/09/18 08:00:53;;;;;;;;;;;;;;;;;;4998031;28;91280;-70
2023/09/18 08:03:19;;;;;;;;;;;;;;;;;;4991461;28;89668;-71
2023/09/18 08:05:45;;;;;;;;;;;;;;;;;;4993999;28;89835;-67
2023/09/18 08:08:10;;;;;;;;;;;;;;;;;;4991397;28;89487;-67
2023/09/18 08:10:40;;;;;;;;;;;;;;;;;;4992110;28;90194;-65
2023/09/18 08:13:05;;;;;;;;;;;;;;;;;;4976922;28;92233;-66
2023/09/18 08:15:30;;;;;;;;;;;;;;;;;;4987349;28;89671;-71
2023/09/18 08:17:56;;;;;;;;;;;;;;;;;;4987413;28;90811;-65
2023/09/18 08:23:24;;;;;;;;;;;;;;;;;;4984102;28;89709;-70
2023/09/18 08:25:51;;;;;;;;;;;;;;;;;;4987763;28;90150;-67
2023/09/18 08:28:16;;;;;;;;;;;;;;;;;;4993346;28;89892;-71
2023/09/18 08:30:44;;;;;;;;;;;;;;;;;;4987477;28;89626;-69
2023/09/18 08:33:11;;;;;;;;;;;;;;;;;;4987896;28;89234;-69
2023/09/18 08:35:36;;;;;;;;;;;;;;;;;;4987677;28;90089;-69
2023/09/18 08:38:02;;;;;;;;;;;;;;;;;;4988392;28;89635;-70
2023/09/18 08:40:27;;;;;;;;;;;;;;;;;;4991224;28;90420;-71
2023/09/18 08:42:55;;;;;;;;;;;;;;;;;;4993560;28;89529;-71
2023/09/18 08:45:23;;;;;;;;;;;;;;;;;;4988849;28;89355;-69
2023/09/18 08:47:49;;;;;;;;;;;;;;;;;;4986256;28;91209;-66
2023/09/18 08:50:15;;;;;;;;;;;;;;;;;;4991581;28;89809;-65
2023/09/18 08:52:41;;;;;;;;;;;;;;;;;;4988784;28;89261;-66
2023/09/18 08:55:07;;;;;;;;;;;;;;;;;;4988533;28;89664;-67
2023/09/18 08:57:35;;;;;;;;;;;;;;;;;;4986745;28;91255;-64
2023/09/18 09:00:06;;;;;;;;;;;;;;;;;;5018946;27;90459;-68
2023/09/18 09:02:32;;;;;;;;;;;;;;;;;;4988664;28;89864;-70
2023/09/18 09:04:57;;;;;;;;;;;;;;;;;;4990263;28;89741;-67
2023/09/18 09:07:22;;;;;;;;;;;;;;;;;;4986751;28;89988;-67
2023/09/18 09:09:48;;;;;;;;;;;;;;;;;;4994741;28;89097;-70
2023/09/18 09:12:14;;;;;;;;;;;;;;;;;;4987185;28;89449;-69
2023/09/18 09:14:39;;;;;;;;;;;;;;;;;;4989858;28;89852;-67
2023/09/18 09:17:06;;;;;;;;;;;;;;;;;;4988750;28;89504;-70
2023/09/18 09:19:32;;;;;;;;;;;;;;;;;;4989781;28;90316;-64
2023/09/18 09:21:58;;;;;;;;;;;;;;;;;;4992805;28;89200;-71
2023/09/18 09:24:43;;;;;;;;;;;;;;;;;;4994105;28;90113;-73
2023/09/18 09:27:09;;;;;;;;;;;;;;;;;;4990667;28;90321;-74
2023/09/18 09:29:34;;;;;;;;;;;;;;;;;;4989026;28;90908;-70
2023/09/18 09:32:12;;;;;;;;;;;;;;;;;;4992507;28;89582;-66
2023/09/18 09:34:38;;;;;;;;;;;;;;;;;;4987827;28;89111;-70
2023/09/18 09:37:04;;;;;;;;;;;;;;;;;;4987858;28;92361;-68
2023/09/18 09:39:30;;;;;;;;;;;;;;;;;;4987842;28;89507;-64
2023/09/18 09:41:59;;;;;;;;;;;;;;;;;;4991935;28;89223;-69
2023/09/18 09:44:24;;;;;;;;;;;;;;;;;;4988652;28;91538;-66
2023/09/18 09:46:51;;;;;;;;;;;;;;;;;;4989188;28;89226;-70
2023/09/18 09:49:17;;;;;;;;;;;;;;;;;;4988910;28;90857;-69
2023/09/18 09:51:43;;;;;;;;;;;;;;;;;;4987986;28;89837;-68
2023/09/18 09:54:10;;;;;;;;;;;;;;;;;;4989189;28;90597;-69
2023/09/18 09:56:47;;;;;;;;;;;;;;;;;;4990287;28;93102;-68
2023/09/18 09:59:14;;;;;;;;;;;;;;;;;;4989036;28;90405;-71
2023/09/18 10:01:40;;;;;;;;;;;;;;;;;;4990525;28;89721;-67
2023/09/18 10:04:09;;;;;;;;;;;;;;;;;;4993368;28;90615;-65
2023/09/18 10:06:36;;;;;;;;;;;;;;;;;;4986539;28;89490;-68
2023/09/18 10:09:03;;;;;;;;;;;;;;;;;;4986466;28;89794;-69
2023/09/18 10:11:29;;;;;;;;;;;;;;;;;;4992860;28;89622;-71
2023/09/18 10:14:00;;;;;;;;;;;;;;;;;;4993765;28;89386;-66
2023/09/18 10:16:27;;;;;;;;;;;;;;;;;;4991814;28;89529;-70
2023/09/18 10:18:56;;;;;;;;;;;;;;;;;;4990220;28;89261;-69
2023/09/18 10:21:31;;;;;;;;;;;;;;;;;;4993262;28;89481;-72
2023/09/18 10:24:19;;;;;;;;;;;;;;;;;;4989933;28;91640;-68
2023/09/18 10:26:50;;;;;;;;;;;;;;;;;;4986028;28;89590;-68
2023/09/18 10:29:18;;;;;;;;;;;;;;;;;;4987953;28;89104;-63
2023/09/18 10:31:45;;;;;;;;;;;;;;;;;;4991613;28;91531;-67
2023/09/18 10:34:12;;;;;;;;;;;;;;;;;;4994262;28;91464;-68
2023/09/18 10:36:40;;;;;;;;;;;;;;;;;;4994846;28;89624;-71
2023/09/18 10:39:08;;;;;;;;;;;;;;;;;;4994869;28;89492;-68
2023/09/18 10:41:34;;;;;;;;;;;;;;;;;;4991160;28;90207;-70
2023/09/18 10:44:00;;;;;;;;;;;;;;;;;;4990489;28;90658;-74
2023/09/18 10:46:26;;;;;;;;;;;;;;;;;;4992375;28;89170;-71
2023/09/18 10:48:52;;;;;;;;;;;;;;;;;;4993082;28;89340;-71
2023/09/18 10:51:21;;;;;;;;;;;;;;;;;;4992528;28;89668;-72
2023/09/18 10:53:50;;;;;;;;;;;;;;;;;;4991099;28;89981;-71
2023/09/18 10:56:18;;;;;;;;;;;;;;;;;;4994823;28;89085;-71
2023/09/18 10:58:44;;;;;;;;;;;;;;;;;;4991207;28;90286;-68
2023/09/18 11:01:11;;;;;;;;;;;;;;;;;;4992559;28;90181;-71
2023/09/18 11:03:37;;;;;;;;;;;;;;;;;;4990334;28;89961;-69
2023/09/18 11:06:14;;;;;;;;;;;;;;;;;;4989371;28;89725;-69
2023/09/18 11:08:53;;;;;;;;;;;;;;;;;;4990102;28;89683;-66
2023/09/18 11:11:25;;;;;;;;;;;;;;;;;;4988804;28;90031;-68
2023/09/18 11:13:54;;;;;;;;;;;;;;;;;;4990053;28;89536;-73
2023/09/18 11:16:28;;;;;;;;;;;;;;;;;;4991143;28;89839;-68
2023/09/18 11:19:05;;;;;;;;;;;;;;;;;;4987907;28;90983;-72
2023/09/18 11:21:31;;;;;;;;;;;;;;;;;;4991864;28;89276;-73
2023/09/18 11:24:16;;;;;;;;;;;;;;;;;;4990843;28;90095;-73
2023/09/18 11:26:42;;;;;;;;;;;;;;;;;;4988791;28;90624;-72
2023/09/18 11:29:10;;;;;;;;;;;;;;;;;;4988637;28;89793;-70
2023/09/18 11:31:47;;;;;;;;;;;;;;;;;;4987080;28;91028;-70
2023/09/18 11:34:12;;;;;;;;;;;;;;;;;;4989399;28;89672;-71
2023/09/18 11:36:38;;;;;;;;;;;;;;;;;;4988188;28;89732;-67
2023/09/18 11:39:03;;;;;;;;;;;;;;;;;;4992376;28;89979;-69
2023/09/18 11:41:30;;;;;;;;;;;;;;;;;;4987576;28;90364;-64
2023/09/18 11:44:10;;;;;;;;;;;;;;;;;;4992505;28;90188;-69
2023/09/18 11:46:35;;;;;;;;;;;;;;;;;;4989535;28;89950;-73
2023/09/18 11:49:05;;;;;;;;;;;;;;;;;;4996916;28;89536;-70
2023/09/18 11:51:31;;;;;;;;;;;;;;;;;;4987969;28;89718;-73
2023/09/18 11:53:57;;;;;;;;;;;;;;;;;;4988215;28;89984;-72
2023/09/18 11:56:22;;;;;;;;;;;;;;;;;;4987071;28;89729;-69
2023/09/18 11:58:48;;;;;;;;;;;;;;;;;;4988902;28;91135;-70
2023/09/18 12:01:15;;;;;;;;;;;;;;;;;;4990702;28;90261;-66
2023/09/18 12:03:41;;;;;;;;;;;;;;;;;;4989876;28;89979;-73
2023/09/18 12:06:07;;;;;;;;;;;;;;;;;;4992819;28;89675;-72
2023/09/18 12:08:32;;;;;;;;;;;;;;;;;;4990145;28;88941;-70
2023/09/18 12:10:58;;;;;;;;;;;;;;;;;;4989070;28;89585;-72
2023/09/18 12:13:27;;;;;;;;;;;;;;;;;;4993031;28;90448;-73
2023/09/18 12:15:56;;;;;;;;;;;;;;;;;;4984262;28;89863;-69
2023/09/18 12:18:22;;;;;;;;;;;;;;;;;;4991824;28;91032;-69
2023/09/18 12:20:48;;;;;;;;;;;;;;;;;;4992020;28;90178;-72
2023/09/18 12:23:14;;;;;;;;;;;;;;;;;;4987599;28;90247;-67
2023/09/18 12:25:40;;;;;;;;;;;;;;;;;;4989171;28;90019;-65
2023/09/18 12:28:06;;;;;;;;;;;;;;;;;;4990571;28;90741;-67
2023/09/18 12:30:32;;;;;;;;;;;;;;;;;;4989388;28;90073;-66
2023/09/18 12:33:00;;;;;;;;;;;;;;;;;;4989622;28;89673;-65
2023/09/18 12:35:29;;;;;;;;;;;;;;;;;;4994290;28;89835;-65
2023/09/18 12:37:54;;;;;;;;;;;;;;;;;;4988902;28;90758;-64
2023/09/18 12:40:25;;;;;;;;;;;;;;;;;;4988316;28;89894;-67
2023/09/18 12:42:54;;;;;;;;;;;;;;;;;;4990077;28;89860;-64
2023/09/18 12:45:20;;;;;;;;;;;;;;;;;;4981945;28;90100;-65
2023/09/18 12:47:45;;;;;;;;;;;;;;;;;;4986503;28;89270;-71
2023/09/18 12:50:14;;;;;;;;;;;;;;;;;;4989742;28;89364;-68
2023/09/18 12:52:39;;;;;;;;;;;;;;;;;;4989449;28;89244;-68
2023/09/18 12:55:06;;;;;;;;;;;;;;;;;;4989173;28;89727;-71
2023/09/18 12:57:32;;;;;;;;;;;;;;;;;;4993219;28;89723;-69
2023/09/18 12:59:57;;;;;;;;;;;;;;;;;;4990529;28;90184;-71
2023/09/18 13:02:23;;;;;;;;;;;;;;;;;;4989876;28;90027;-80
2023/09/18 13:04:52;;;;;;;;;;;;;;;;;;4990084;28;91591;-73
2023/09/18 13:07:18;;;;;;;;;;;;;;;;;;5017166;27;92075;-72
2023/09/18 13:09:58;;;;;;;;;;;;;;;;;;4988087;28;90040;-65
2023/09/18 13:12:23;;;;;;;;;;;;;;;;;;4987988;28;90201;-72
2023/09/18 13:15:08;;;;;;;;;;;;;;;;;;4987470;28;90753;-72
2023/09/18 13:17:47;;;;;;;;;;;;;;;;;;4990183;28;89884;-74
2023/09/18 13:20:26;;;;;;;;;;;;;;;;;;4986675;28;89636;-69
2023/09/18 13:22:52;;;;;;;;;;;;;;;;;;4975767;28;89948;-72
2023/09/18 13:25:22;;;;;;;;;;;;;;;;;;4985586;28;90703;-72
2023/09/18 13:27:47;;;;;;;;;;;;;;;;;;4987061;28;89345;-73
2023/09/18 13:30:16;;;;;;;;;;;;;;;;;;4992143;28;89650;-71
2023/09/18 13:32:42;;;;;;;;;;;;;;;;;;4989457;28;89896;-83
2023/09/18 13:35:08;;;;;;;;;;;;;;;;;;4990004;28;89035;-69
2023/09/18 13:37:33;;;;;;;;;;;;;;;;;;4988835;28;90624;-70
2023/09/18 13:40:01;;;;;;;;;;;;;;;;;;4987359;28;89064;-67
2023/09/18 13:42:26;;;;;;;;;;;;;;;;;;4988101;28;89680;-66
2023/09/18 13:44:52;;;;;;;;;;;;;;;;;;4987248;28;89527;-70
2023/09/18 13:47:17;;;;;;;;;;;;;;;;;;4987267;28;90032;-69
2023/09/18 13:49:42;;;;;;;;;;;;;;;;;;4988245;28;89304;-70
2023/09/18 13:52:07;;;;;;;;;;;;;;;;;;4991044;28;89451;-68
2023/09/18 13:54:32;;;;;;;;;;;;;;;;;;4990305;28;90823;-66
2023/09/18 13:56:58;;;;;;;;;;;;;;;;;;4989594;28;89331;-68
2023/09/18 13:59:23;;;;;;;;;;;;;;;;;;4988373;28;90579;-69
2023/09/18 14:01:49;;;;;;;;;;;;;;;;;;4986651;28;90562;-67
2023/09/18 14:04:15;;;;;;;;;;;;;;;;;;4987195;28;90678;-68
2023/09/18 14:06:40;;;;;;;;;;;;;;;;;;4983771;28;89680;-65
2023/09/18 14:09:05;;;;;;;;;;;;;;;;;;4989443;28;89326;-65
2023/09/18 14:11:31;;;;;;;;;;;;;;;;;;4986865;28;90512;-69
2023/09/18 14:13:56;;;;;;;;;;;;;;;;;;4986972;28;90382;-65
2023/09/18 14:16:22;;;;;;;;;;;;;;;;;;4977696;27;89381;-69
2023/09/18 14:18:48;;;;;;;;;;;;;;;;;;4963250;28;89412;-68
2023/09/18 14:21:13;;;;;;;;;;;;;;;;;;4956560;28;90697;-72
2023/09/18 14:23:39;;;;;;;;;;;;;;;;;;4959216;28;90138;-71
2023/09/18 14:26:05;;;;;;;;;;;;;;;;;;4954263;28;89751;-68
2023/09/18 14:28:31;;;;;;;;;;;;;;;;;;4972709;28;90964;-68
2023/09/18 14:30:56;;;;;;;;;;;;;;;;;;4960014;28;90987;-67
2023/09/18 14:33:22;;;;;;;;;;;;;;;;;;4958994;28;90238;-69
2023/09/18 14:35:47;;;;;;;;;;;;;;;;;;4961370;28;89386;-72
2023/09/18 14:38:14;;;;;;;;;;;;;;;;;;4961677;28;90679;-68
2023/09/18 14:40:43;;;;;;;;;;;;;;;;;;4961208;28;89592;-70
2023/09/18 14:43:08;;;;;;;;;;;;;;;;;;4962025;28;90778;-70
2023/09/18 14:45:34;;;;;;;;;;;;;;;;;;4961227;28;90661;-69
2023/09/18 14:47:59;;;;;;;;;;;;;;;;;;4961741;28;89474;-71
2023/09/18 14:50:25;;;;;;;;;;;;;;;;;;4961410;28;89523;-71
2023/09/18 14:52:50;;;;;;;;;;;;;;;;;;4958774;28;90248;-74
2023/09/18 14:55:16;;;;;;;;;;;;;;;;;;4963170;28;89287;-73
2023/09/18 14:57:41;;;;;;;;;;;;;;;;;;4958757;28;89946;-71
2023/09/18 15:00:07;;;;;;;;;;;;;;;;;;4959097;28;89337;-72
2023/09/18 15:02:34;;;;;;;;;;;;;;;;;;4958292;28;90812;-69
2023/09/18 15:05:00;;;;;;;;;;;;;;;;;;4961703;28;90711;-65
2023/09/18 15:07:25;;;;;;;;;;;;;;;;;;4959667;28;89490;-70
2023/09/18 15:09:50;;;;;;;;;;;;;;;;;;4958979;28;89857;-72
2023/09/18 15:12:16;;;;;;;;;;;;;;;;;;4956453;28;89988;-78
2023/09/18 15:14:41;;;;;;;;;;;;;;;;;;4959398;28;89674;-73
2023/09/18 15:17:07;;;;;;;;;;;;;;;;;;4961984;28;90119;-74
2023/09/18 15:19:33;;;;;;;;;;;;;;;;;;4961080;28;90708;-75
2023/09/18 15:21:59;;;;;;;;;;;;;;;;;;4964482;28;90367;-71
2023/09/18 15:24:24;;;;;;;;;;;;;;;;;;4958640;28;90405;-72
2023/09/18 15:26:49;;;;;;;;;;;;;;;;;;4961692;28;89049;-73
2023/09/18 15:29:16;;;;;;;;;;;;;;;;;;4963085;28;89467;-72
2023/09/18 15:31:41;;;;;;;;;;;;;;;;;;4961026;28;90654;-69
2023/09/18 15:34:06;;;;;;;;;;;;;;;;;;4960849;28;90411;-73
2023/09/18 15:36:32;;;;;;;;;;;;;;;;;;4960521;28;89714;-70
2023/09/18 15:38:57;;;;;;;;;;;;;;;;;;4963397;28;90596;-72
2023/09/18 15:41:22;;;;;;;;;;;;;;;;;;4966819;28;89327;-71
2023/09/18 15:43:49;;;;;;;;;;;;;;;;;;4964037;28;89671;-68
2023/09/18 15:46:17;;;;;;;;;;;;;;;;;;4957594;28;89156;-74
2023/09/18 15:48:42;;;;;;;;;;;;;;;;;;4966012;28;89382;-68
2023/09/18 15:51:07;;;;;;;;;;;;;;;;;;4963637;28;89705;-68
2023/09/18 15:53:32;;;;;;;;;;;;;;;;;;4961981;28;90303;-69
2023/09/18 15:55:59;;;;;;;;;;;;;;;;;;4964202;28;89756;-68
2023/09/18 15:58:25;;;;;;;;;;;;;;;;;;4961240;28;89361;-66
2023/09/18 16:00:50;;;;;;;;;;;;;;;;;;4961356;28;89552;-70
2023/09/18 16:03:15;;;;;;;;;;;;;;;;;;4965893;28;89483;-71
2023/09/18 16:05:40;;;;;;;;;;;;;;;;;;4961344;28;89472;-70
2023/09/18 16:08:06;;;;;;;;;;;;;;;;;;4962404;28;90373;-67
2023/09/18 16:10:32;;;;;;;;;;;;;;;;;;4964783;28;89354;-70
2023/09/18 16:12:57;;;;;;;;;;;;;;;;;;4963503;28;89479;-68
2023/09/18 16:15:22;;;;;;;;;;;;;;;;;;4961456;28;89723;-71
2023/09/18 16:17:47;;;;;;;;;;;;;;;;;;4964062;28;90041;-72
2023/09/18 16:20:13;;;;;;;;;;;;;;;;;;4948117;28;92201;-67
2023/09/18 16:22:41;;;;;;;;;;;;;;;;;;4938700;28;92391;-70
2023/09/18 16:25:08;;;;;;;;;;;;;;;;;;4964733;28;89982;-71
2023/09/18 16:27:33;;;;;;;;;;;;;;;;;;4965514;28;90844;-69
2023/09/18 16:29:58;;;;;;;;;;;;;;;;;;4957016;28;89732;-70
2023/09/18 16:32:24;;;;;;;;;;;;;;;;;;4960825;28;89645;-72
2023/09/18 16:34:50;;;;;;;;;;;;;;;;;;4958976;28;90953;-69
2023/09/18 16:37:15;;;;;;;;;;;;;;;;;;4958009;28;89519;-71
2023/09/18 16:39:41;;;;;;;;;;;;;;;;;;4958063;28;89542;-68
2023/09/18 16:42:07;;;;;;;;;;;;;;;;;;4961451;28;89768;-66
2023/09/18 16:44:32;;;;;;;;;;;;;;;;;;4964007;28;89269;-73